sensor_id;sensor_type;location;lat;lon;timestamp;temperature;humidity
64143;DHT22;50437;51.970;5.904;2023-04-03T00:01:43;4.10;99.90
64143;DHT22;50437;51.970;5.904;2023-04-03T00:04:09;4.10;99.90
64143;DHT22;50437;51.970;5.904;2023-04-03T00:06:35;4.00;99.90
64143;DHT22;50437;51.970;5.904;2023-04-03T00:09:01;4.00;99.90
64143;DHT22;50437;51.970;5.904;2023-04-03T00:11:27;4.00;99.90
64143;DHT22;50437;51.970;5.904;2023-04-03T00:13:53;4.00;99.90
64143;DHT22;50437;51.970;5.904;2023-04-03T00:16:19;4.10;99.90
64143;DHT22;50437;51.970;5.904;2023-04-03T00:18:45;4.10;99.90
64143;DHT22;50437;51.970;5.904;2023-04-03T00:21:12;4.00;99.90
64143;DHT22;50437;51.970;5.904;2023-04-03T00:23:38;4.10;99.90
64143;DHT22;50437;51.970;5.904;2023-04-03T00:26:04;4.00;99.90
64143;DHT22;50437;51.970;5.904;2023-04-03T00:28:30;4.00;99.90
64143;DHT22;50437;51.970;5.904;2023-04-03T00:30:56;4.00;99.90
64143;DHT22;50437;51.970;5.904;2023-04-03T00:33:22;3.90;99.90
64143;DHT22;50437;51.970;5.904;2023-04-03T00:35:50;3.90;99.90
64143;DHT22;50437;51.970;5.904;2023-04-03T00:38:16;3.90;99.90
64143;DHT22;50437;51.970;5.904;2023-04-03T00:40:43;3.80;99.90
64143;DHT22;50437;51.970;5.904;2023-04-03T00:43:11;3.90;99.90
64143;DHT22;50437;51.970;5.904;2023-04-03T00:45:39;3.80;99.90
64143;DHT22;50437;51.970;5.904;2023-04-03T00:48:07;3.80;99.90
64143;DHT22;50437;51.970;5.904;2023-04-03T00:50:34;3.80;99.90
64143;DHT22;50437;51.970;5.904;2023-04-03T00:53:01;3.80;99.90
64143;DHT22;50437;51.970;5.904;2023-04-03T00:55:28;3.80;99.90
64143;DHT22;50437;51.970;5.904;2023-04-03T00:57:55;3.70;99.90
64143;DHT22;50437;51.970;5.904;2023-04-03T01:00:21;3.70;99.90
64143;DHT22;50437;51.970;5.904;2023-04-03T01:02:49;3.70;99.90
64143;DHT22;50437;51.970;5.904;2023-04-03T01:05:18;3.60;99.90
64143;DHT22;50437;51.970;5.904;2023-04-03T01:07:44;3.60;99.90
64143;DHT22;50437;51.970;5.904;2023-04-03T01:10:11;3.60;99.90
64143;DHT22;50437;51.970;5.904;2023-04-03T01:12:41;3.70;99.90
64143;DHT22;50437;51.970;5.904;2023-04-03T01:15:08;3.60;99.90
64143;DHT22;50437;51.970;5.904;2023-04-03T01:17:54;3.50;99.90
64143;DHT22;50437;51.970;5.904;2023-04-03T01:20:29;3.50;99.90
64143;DHT22;50437;51.970;5.904;2023-04-03T01:28:05;3.40;99.90
64143;DHT22;50437;51.970;5.904;2023-04-03T01:30:35;3.40;99.90
64143;DHT22;50437;51.970;5.904;2023-04-03T01:33:02;3.50;99.90
64143;DHT22;50437;51.970;5.904;2023-04-03T01:35:28;3.40;99.90
64143;DHT22;50437;51.970;5.904;2023-04-03T01:37:54;3.40;99.90
64143;DHT22;50437;51.970;5.904;2023-04-03T01:40:21;3.40;99.90
64143;DHT22;50437;51.970;5.904;2023-04-03T01:42:47;3.40;99.90
64143;DHT22;50437;51.970;5.904;2023-04-03T01:45:13;3.40;99.90
64143;DHT22;50437;51.970;5.904;2023-04-03T01:47:39;3.40;99.90
64143;DHT22;50437;51.970;5.904;2023-04-03T01:50:05;3.30;99.90
64143;DHT22;50437;51.970;5.904;2023-04-03T01:52:33;3.30;99.90
64143;DHT22;50437;51.970;5.904;2023-04-03T01:54:59;3.30;99.90
64143;DHT22;50437;51.970;5.904;2023-04-03T01:57:26;3.30;99.90
64143;DHT22;50437;51.970;5.904;2023-04-03T01:59:52;3.20;99.90
64143;DHT22;50437;51.970;5.904;2023-04-03T02:02:18;3.20;99.90
64143;DHT22;50437;51.970;5.904;2023-04-03T02:04:46;3.20;99.90
64143;DHT22;50437;51.970;5.904;2023-04-03T02:07:12;3.20;99.90
64143;DHT22;50437;51.970;5.904;2023-04-03T02:09:38;3.20;99.90
64143;DHT22;50437;51.970;5.904;2023-04-03T02:12:04;3.20;99.90
64143;DHT22;50437;51.970;5.904;2023-04-03T02:14:30;3.10;99.90
64143;DHT22;50437;51.970;5.904;2023-04-03T02:16:56;3.10;99.90
64143;DHT22;50437;51.970;5.904;2023-04-03T02:19:22;3.10;99.90
64143;DHT22;50437;51.970;5.904;2023-04-03T02:21:48;3.10;99.90
64143;DHT22;50437;51.970;5.904;2023-04-03T02:24:14;3.10;99.90
64143;DHT22;50437;51.970;5.904;2023-04-03T02:26:40;3.10;99.90
64143;DHT22;50437;51.970;5.904;2023-04-03T02:29:06;3.00;99.90
64143;DHT22;50437;51.970;5.904;2023-04-03T02:31:37;3.10;99.90
64143;DHT22;50437;51.970;5.904;2023-04-03T02:34:04;3.00;99.90
64143;DHT22;50437;51.970;5.904;2023-04-03T02:36:31;3.00;99.90
64143;DHT22;50437;51.970;5.904;2023-04-03T02:38:59;3.00;99.90
64143;DHT22;50437;51.970;5.904;2023-04-03T02:41:25;3.00;99.90
64143;DHT22;50437;51.970;5.904;2023-04-03T02:43:55;2.90;99.90
64143;DHT22;50437;51.970;5.904;2023-04-03T02:46:21;3.00;99.90
64143;DHT22;50437;51.970;5.904;2023-04-03T02:48:47;2.90;99.90
64143;DHT22;50437;51.970;5.904;2023-04-03T02:51:13;2.90;99.90
64143;DHT22;50437;51.970;5.904;2023-04-03T02:53:39;2.90;99.90
64143;DHT22;50437;51.970;5.904;2023-04-03T02:56:14;2.90;99.90
64143;DHT22;50437;51.970;5.904;2023-04-03T02:58:40;2.90;99.90
64143;DHT22;50437;51.970;5.904;2023-04-03T03:01:08;2.90;99.90
64143;DHT22;50437;51.970;5.904;2023-04-03T03:03:34;2.80;99.90
64143;DHT22;50437;51.970;5.904;2023-04-03T03:06:01;2.80;99.90
64143;DHT22;50437;51.970;5.904;2023-04-03T03:08:27;2.80;99.90
64143;DHT22;50437;51.970;5.904;2023-04-03T03:10:53;2.80;99.90
64143;DHT22;50437;51.970;5.904;2023-04-03T03:13:19;2.80;99.90
64143;DHT22;50437;51.970;5.904;2023-04-03T03:15:46;2.80;99.90
64143;DHT22;50437;51.970;5.904;2023-04-03T03:18:12;2.70;99.90
64143;DHT22;50437;51.970;5.904;2023-04-03T03:20:38;2.70;99.90
64143;DHT22;50437;51.970;5.904;2023-04-03T03:23:04;2.70;99.90
64143;DHT22;50437;51.970;5.904;2023-04-03T03:25:30;2.70;99.90
64143;DHT22;50437;51.970;5.904;2023-04-03T03:27:56;2.70;99.90
64143;DHT22;50437;51.970;5.904;2023-04-03T03:30:22;2.70;99.90
64143;DHT22;50437;51.970;5.904;2023-04-03T03:32:48;2.60;99.90
64143;DHT22;50437;51.970;5.904;2023-04-03T03:35:14;2.60;99.90
64143;DHT22;50437;51.970;5.904;2023-04-03T03:37:40;2.60;99.90
64143;DHT22;50437;51.970;5.904;2023-04-03T03:40:06;2.50;99.90
64143;DHT22;50437;51.970;5.904;2023-04-03T03:42:33;2.50;99.90
64143;DHT22;50437;51.970;5.904;2023-04-03T03:44:59;2.50;99.90
64143;DHT22;50437;51.970;5.904;2023-04-03T03:47:25;2.50;99.90
64143;DHT22;50437;51.970;5.904;2023-04-03T03:49:51;2.60;99.90
64143;DHT22;50437;51.970;5.904;2023-04-03T03:52:17;2.50;99.90
64143;DHT22;50437;51.970;5.904;2023-04-03T03:54:43;2.50;99.90
64143;DHT22;50437;51.970;5.904;2023-04-03T03:57:09;2.50;99.90
64143;DHT22;50437;51.970;5.904;2023-04-03T03:59:35;2.40;99.90
64143;DHT22;50437;51.970;5.904;2023-04-03T04:02:01;2.40;99.90
64143;DHT22;50437;51.970;5.904;2023-04-03T04:04:28;2.40;99.90
64143;DHT22;50437;51.970;5.904;2023-04-03T04:06:55;2.30;99.90
64143;DHT22;50437;51.970;5.904;2023-04-03T04:09:21;2.30;99.90
64143;DHT22;50437;51.970;5.904;2023-04-03T04:11:47;2.30;99.90
64143;DHT22;50437;51.970;5.904;2023-04-03T04:14:15;2.30;99.90
64143;DHT22;50437;51.970;5.904;2023-04-03T04:16:42;2.30;99.90
64143;DHT22;50437;51.970;5.904;2023-04-03T04:19:13;2.20;99.90
64143;DHT22;50437;51.970;5.904;2023-04-03T04:21:40;2.30;99.90
64143;DHT22;50437;51.970;5.904;2023-04-03T04:24:08;2.20;99.90
64143;DHT22;50437;51.970;5.904;2023-04-03T04:26:34;2.20;99.90
64143;DHT22;50437;51.970;5.904;2023-04-03T04:29:00;2.10;99.90
64143;DHT22;50437;51.970;5.904;2023-04-03T04:31:27;2.10;99.90
64143;DHT22;50437;51.970;5.904;2023-04-03T04:33:53;2.10;99.90
64143;DHT22;50437;51.970;5.904;2023-04-03T04:36:19;2.00;99.90
64143;DHT22;50437;51.970;5.904;2023-04-03T04:38:46;2.00;99.90
64143;DHT22;50437;51.970;5.904;2023-04-03T04:41:12;2.10;99.90
64143;DHT22;50437;51.970;5.904;2023-04-03T04:43:38;2.00;99.90
64143;DHT22;50437;51.970;5.904;2023-04-03T04:46:09;1.90;99.90
64143;DHT22;50437;51.970;5.904;2023-04-03T04:48:42;1.90;99.90
64143;DHT22;50437;51.970;5.904;2023-04-03T04:51:09;1.90;99.90
64143;DHT22;50437;51.970;5.904;2023-04-03T04:53:37;1.90;99.90
64143;DHT22;50437;51.970;5.904;2023-04-03T04:56:04;1.90;99.90
64143;DHT22;50437;51.970;5.904;2023-04-03T04:58:31;1.90;99.90
64143;DHT22;50437;51.970;5.904;2023-04-03T05:00:59;1.90;99.90
64143;DHT22;50437;51.970;5.904;2023-04-03T05:03:26;1.80;99.90
64143;DHT22;50437;51.970;5.904;2023-04-03T05:05:52;1.80;99.90
64143;DHT22;50437;51.970;5.904;2023-04-03T05:08:18;1.90;99.90
64143;DHT22;50437;51.970;5.904;2023-04-03T05:10:44;1.80;99.90
64143;DHT22;50437;51.970;5.904;2023-04-03T05:13:11;1.80;99.90
64143;DHT22;50437;51.970;5.904;2023-04-03T05:15:37;1.90;99.90
64143;DHT22;50437;51.970;5.904;2023-04-03T05:18:03;1.90;99.90
64143;DHT22;50437;51.970;5.904;2023-04-03T05:20:31;1.80;99.90
64143;DHT22;50437;51.970;5.904;2023-04-03T05:22:57;1.80;99.90
64143;DHT22;50437;51.970;5.904;2023-04-03T05:25:23;1.80;99.90
64143;DHT22;50437;51.970;5.904;2023-04-03T05:27:49;1.80;99.90
64143;DHT22;50437;51.970;5.904;2023-04-03T05:30:16;1.80;99.90
64143;DHT22;50437;51.970;5.904;2023-04-03T05:32:42;1.80;99.90
64143;DHT22;50437;51.970;5.904;2023-04-03T05:35:15;1.80;99.90
64143;DHT22;50437;51.970;5.904;2023-04-03T05:37:42;1.70;99.90
64143;DHT22;50437;51.970;5.904;2023-04-03T05:40:08;1.80;99.90
64143;DHT22;50437;51.970;5.904;2023-04-03T05:42:36;1.80;99.90
64143;DHT22;50437;51.970;5.904;2023-04-03T05:45:02;1.80;99.90
64143;DHT22;50437;51.970;5.904;2023-04-03T05:47:28;1.80;99.90
64143;DHT22;50437;51.970;5.904;2023-04-03T05:49:55;1.80;99.90
64143;DHT22;50437;51.970;5.904;2023-04-03T05:52:23;1.80;99.90
64143;DHT22;50437;51.970;5.904;2023-04-03T05:54:52;1.80;99.90
64143;DHT22;50437;51.970;5.904;2023-04-03T05:57:23;1.90;99.90
64143;DHT22;50437;51.970;5.904;2023-04-03T05:59:50;1.80;99.90
64143;DHT22;50437;51.970;5.904;2023-04-03T06:02:17;1.90;99.90
64143;DHT22;50437;51.970;5.904;2023-04-03T06:04:45;1.90;99.90
64143;DHT22;50437;51.970;5.904;2023-04-03T06:07:12;1.90;99.90
64143;DHT22;50437;51.970;5.904;2023-04-03T06:09:39;1.90;99.90
64143;DHT22;50437;51.970;5.904;2023-04-03T06:12:05;1.90;99.90
64143;DHT22;50437;51.970;5.904;2023-04-03T06:14:31;1.90;99.90
64143;DHT22;50437;51.970;5.904;2023-04-03T06:16:57;1.90;99.90
64143;DHT22;50437;51.970;5.904;2023-04-03T06:19:23;2.00;99.90
64143;DHT22;50437;51.970;5.904;2023-04-03T06:21:53;1.90;99.90
64143;DHT22;50437;51.970;5.904;2023-04-03T06:24:20;2.00;99.90
64143;DHT22;50437;51.970;5.904;2023-04-03T06:26:47;2.00;99.90
64143;DHT22;50437;51.970;5.904;2023-04-03T06:29:14;2.00;99.90
64143;DHT22;50437;51.970;5.904;2023-04-03T06:31:40;2.00;99.90
64143;DHT22;50437;51.970;5.904;2023-04-03T06:34:06;2.00;99.90
64143;DHT22;50437;51.970;5.904;2023-04-03T06:36:33;2.10;99.90
64143;DHT22;50437;51.970;5.904;2023-04-03T06:38:58;2.10;99.90
64143;DHT22;50437;51.970;5.904;2023-04-03T06:41:25;2.10;99.90
64143;DHT22;50437;51.970;5.904;2023-04-03T06:43:53;2.10;99.90
64143;DHT22;50437;51.970;5.904;2023-04-03T06:46:22;2.10;99.90
64143;DHT22;50437;51.970;5.904;2023-04-03T06:48:48;2.20;99.90
64143;DHT22;50437;51.970;5.904;2023-04-03T06:51:16;2.20;99.90
64143;DHT22;50437;51.970;5.904;2023-04-03T06:53:44;2.20;99.90
64143;DHT22;50437;51.970;5.904;2023-04-03T06:56:11;2.20;99.90
64143;DHT22;50437;51.970;5.904;2023-04-03T06:58:37;2.20;99.90
64143;DHT22;50437;51.970;5.904;2023-04-03T07:01:03;2.30;99.90
64143;DHT22;50437;51.970;5.904;2023-04-03T07:03:29;2.30;99.90
64143;DHT22;50437;51.970;5.904;2023-04-03T07:05:55;2.30;99.90
64143;DHT22;50437;51.970;5.904;2023-04-03T07:08:21;2.30;99.90
64143;DHT22;50437;51.970;5.904;2023-04-03T07:10:48;2.30;99.90
64143;DHT22;50437;51.970;5.904;2023-04-03T07:13:15;2.30;99.90
64143;DHT22;50437;51.970;5.904;2023-04-03T07:15:41;2.30;99.90
64143;DHT22;50437;51.970;5.904;2023-04-03T07:18:07;2.40;99.90
64143;DHT22;50437;51.970;5.904;2023-04-03T07:20:33;2.50;99.90
64143;DHT22;50437;51.970;5.904;2023-04-03T07:22:59;2.40;99.90
64143;DHT22;50437;51.970;5.904;2023-04-03T07:25:28;2.40;99.90
64143;DHT22;50437;51.970;5.904;2023-04-03T07:27:54;2.50;99.90
64143;DHT22;50437;51.970;5.904;2023-04-03T07:30:20;2.50;99.90
64143;DHT22;50437;51.970;5.904;2023-04-03T07:32:46;2.50;99.90
64143;DHT22;50437;51.970;5.904;2023-04-03T07:35:12;2.60;99.90
64143;DHT22;50437;51.970;5.904;2023-04-03T07:37:38;2.50;99.90
64143;DHT22;50437;51.970;5.904;2023-04-03T07:40:04;2.60;99.90
64143;DHT22;50437;51.970;5.904;2023-04-03T07:42:31;2.70;99.90
64143;DHT22;50437;51.970;5.904;2023-04-03T07:44:57;2.70;99.90
64143;DHT22;50437;51.970;5.904;2023-04-03T07:47:23;2.70;99.90
64143;DHT22;50437;51.970;5.904;2023-04-03T07:49:49;2.70;99.90
64143;DHT22;50437;51.970;5.904;2023-04-03T07:52:15;2.80;99.90
64143;DHT22;50437;51.970;5.904;2023-04-03T07:54:41;2.90;99.90
64143;DHT22;50437;51.970;5.904;2023-04-03T07:57:07;2.90;99.90
64143;DHT22;50437;51.970;5.904;2023-04-03T07:59:33;2.90;99.90
64143;DHT22;50437;51.970;5.904;2023-04-03T08:01:59;3.00;99.90
64143;DHT22;50437;51.970;5.904;2023-04-03T08:04:25;3.10;99.90
64143;DHT22;50437;51.970;5.904;2023-04-03T08:06:51;3.20;99.90
64143;DHT22;50437;51.970;5.904;2023-04-03T08:09:18;3.30;99.90
64143;DHT22;50437;51.970;5.904;2023-04-03T08:11:45;3.30;99.90
64143;DHT22;50437;51.970;5.904;2023-04-03T08:14:11;3.40;99.90
64143;DHT22;50437;51.970;5.904;2023-04-03T08:16:45;3.50;99.90
64143;DHT22;50437;51.970;5.904;2023-04-03T08:19:11;3.50;99.90
64143;DHT22;50437;51.970;5.904;2023-04-03T08:21:41;3.60;99.90
64143;DHT22;50437;51.970;5.904;2023-04-03T08:24:07;3.60;99.90
64143;DHT22;50437;51.970;5.904;2023-04-03T08:26:34;3.70;99.90
64143;DHT22;50437;51.970;5.904;2023-04-03T08:29:00;3.70;99.90
64143;DHT22;50437;51.970;5.904;2023-04-03T08:31:26;3.80;99.90
64143;DHT22;50437;51.970;5.904;2023-04-03T08:33:52;4.00;99.90
64143;DHT22;50437;51.970;5.904;2023-04-03T08:36:22;4.10;99.90
64143;DHT22;50437;51.970;5.904;2023-04-03T08:38:49;4.40;99.90
64143;DHT22;50437;51.970;5.904;2023-04-03T08:49:25;9.20;64.10
64143;DHT22;50437;51.970;5.904;2023-04-03T08:51:52;10.50;61.40
64143;DHT22;50437;51.970;5.904;2023-04-03T08:54:23;11.40;55.90
64143;DHT22;50437;51.970;5.904;2023-04-03T08:56:51;10.90;48.90
64143;DHT22;50437;51.970;5.904;2023-04-03T08:59:19;10.90;48.80
64143;DHT22;50437;51.970;5.904;2023-04-03T09:01:50;11.20;46.20
64143;DHT22;50437;51.970;5.904;2023-04-03T09:04:17;12.00;45.10
64143;DHT22;50437;51.970;5.904;2023-04-03T09:06:45;12.20;44.70
64143;DHT22;50437;51.970;5.904;2023-04-03T09:09:24;12.20;43.50
64143;DHT22;50437;51.970;5.904;2023-04-03T09:20:06;12.30;38.10
64143;DHT22;50437;51.970;5.904;2023-04-03T09:22:34;11.90;34.50
64143;DHT22;50437;51.970;5.904;2023-04-03T09:25:17;11.80;33.40
64143;DHT22;50437;51.970;5.904;2023-04-03T09:27:44;12.10;35.90
64143;DHT22;50437;51.970;5.904;2023-04-03T09:30:15;11.80;32.70
64143;DHT22;50437;51.970;5.904;2023-04-03T09:32:43;11.40;31.10
64143;DHT22;50437;51.970;5.904;2023-04-03T09:40:37;12.40;35.20
64143;DHT22;50437;51.970;5.904;2023-04-03T09:45:42;12.10;31.50
64143;DHT22;50437;51.970;5.904;2023-04-03T09:50:38;12.40;31.90
64143;DHT22;50437;51.970;5.904;2023-04-03T09:53:06;12.50;32.30
64143;DHT22;50437;51.970;5.904;2023-04-03T09:55:33;13.00;33.00
64143;DHT22;50437;51.970;5.904;2023-04-03T09:58:21;13.20;31.10
64143;DHT22;50437;51.970;5.904;2023-04-03T10:00:54;13.00;30.80
64143;DHT22;50437;51.970;5.904;2023-04-03T10:03:30;13.80;31.70
64143;DHT22;50437;51.970;5.904;2023-04-03T10:05:57;14.40;32.50
64143;DHT22;50437;51.970;5.904;2023-04-03T10:08:25;14.20;31.30
64143;DHT22;50437;51.970;5.904;2023-04-03T10:11:05;13.90;29.80
64143;DHT22;50437;51.970;5.904;2023-04-03T10:13:31;14.10;30.30
64143;DHT22;50437;51.970;5.904;2023-04-03T10:16:06;13.90;32.00
64143;DHT22;50437;51.970;5.904;2023-04-03T10:21:06;14.20;31.00
64143;DHT22;50437;51.970;5.904;2023-04-03T10:23:44;15.00;31.50
64143;DHT22;50437;51.970;5.904;2023-04-03T10:31:25;13.20;32.50
64143;DHT22;50437;51.970;5.904;2023-04-03T10:46:52;13.70;31.40
64143;DHT22;50437;51.970;5.904;2023-04-03T10:49:22;13.60;30.40
64143;DHT22;50437;51.970;5.904;2023-04-03T10:51:54;13.60;31.20
64143;DHT22;50437;51.970;5.904;2023-04-03T10:54:24;14.20;31.60
64143;DHT22;50437;51.970;5.904;2023-04-03T10:56:52;14.70;32.60
64143;DHT22;50437;51.970;5.904;2023-04-03T11:01:50;14.30;30.40
64143;DHT22;50437;51.970;5.904;2023-04-03T11:04:18;14.50;31.00
64143;DHT22;50437;51.970;5.904;2023-04-03T11:06:51;14.10;31.60
64143;DHT22;50437;51.970;5.904;2023-04-03T11:09:24;14.00;31.10
64143;DHT22;50437;51.970;5.904;2023-04-03T11:11:53;14.30;31.00
64143;DHT22;50437;51.970;5.904;2023-04-03T11:14:26;13.90;31.40
64143;DHT22;50437;51.970;5.904;2023-04-03T11:16:59;13.20;30.60
64143;DHT22;50437;51.970;5.904;2023-04-03T11:19:32;14.00;32.40
64143;DHT22;50437;51.970;5.904;2023-04-03T11:22:04;13.30;32.20
64143;DHT22;50437;51.970;5.904;2023-04-03T11:24:32;13.70;30.30
64143;DHT22;50437;51.970;5.904;2023-04-03T11:26:59;13.80;31.40
64143;DHT22;50437;51.970;5.904;2023-04-03T11:29:28;13.80;32.50
64143;DHT22;50437;51.970;5.904;2023-04-03T11:36:58;14.00;32.00
64143;DHT22;50437;51.970;5.904;2023-04-03T11:39:30;13.50;31.30
64143;DHT22;50437;51.970;5.904;2023-04-03T11:44:42;14.00;29.80
64143;DHT22;50437;51.970;5.904;2023-04-03T11:47:09;13.70;31.40
64143;DHT22;50437;51.970;5.904;2023-04-03T11:55:01;13.20;30.60
64143;DHT22;50437;51.970;5.904;2023-04-03T11:57:46;13.30;32.00
64143;DHT22;50437;51.970;5.904;2023-04-03T12:02:58;13.20;32.20
64143;DHT22;50437;51.970;5.904;2023-04-03T12:05:28;12.90;32.70
64143;DHT22;50437;51.970;5.904;2023-04-03T12:10:38;12.80;32.60
64143;DHT22;50437;51.970;5.904;2023-04-03T12:13:15;13.00;33.80
64143;DHT22;50437;51.970;5.904;2023-04-03T12:15:49;12.80;33.20
64143;DHT22;50437;51.970;5.904;2023-04-03T12:21:00;12.70;34.10
64143;DHT22;50437;51.970;5.904;2023-04-03T12:23:28;13.00;36.20
64143;DHT22;50437;51.970;5.904;2023-04-03T12:26:29;12.80;36.00
64143;DHT22;50437;51.970;5.904;2023-04-03T12:28:51;12.70;33.70
64143;DHT22;50437;51.970;5.904;2023-04-03T12:31:18;12.20;33.70
64143;DHT22;50437;51.970;5.904;2023-04-03T12:39:21;12.20;35.40
64143;DHT22;50437;51.970;5.904;2023-04-03T12:41:53;12.10;36.20
64143;DHT22;50437;51.970;5.904;2023-04-03T12:46:53;12.60;38.00
64143;DHT22;50437;51.970;5.904;2023-04-03T12:51:48;12.50;36.20
64143;DHT22;50437;51.970;5.904;2023-04-03T12:54:16;12.60;36.80
64143;DHT22;50437;51.970;5.904;2023-04-03T12:56:43;12.50;35.60
64143;DHT22;50437;51.970;5.904;2023-04-03T12:59:15;12.60;37.60
64143;DHT22;50437;51.970;5.904;2023-04-03T13:01:42;12.70;35.60
64143;DHT22;50437;51.970;5.904;2023-04-03T13:04:09;11.80;35.10
64143;DHT22;50437;51.970;5.904;2023-04-03T13:06:41;11.60;36.00
64143;DHT22;50437;51.970;5.904;2023-04-03T13:11:48;11.30;35.80
64143;DHT22;50437;51.970;5.904;2023-04-03T13:14:16;11.40;35.60
64143;DHT22;50437;51.970;5.904;2023-04-03T13:16:52;11.70;36.40
64143;DHT22;50437;51.970;5.904;2023-04-03T13:19:18;11.60;36.50
64143;DHT22;50437;51.970;5.904;2023-04-03T13:21:47;11.70;35.30
64143;DHT22;50437;51.970;5.904;2023-04-03T13:24:13;11.70;35.50
64143;DHT22;50437;51.970;5.904;2023-04-03T13:26:40;11.70;36.90
64143;DHT22;50437;51.970;5.904;2023-04-03T13:29:07;11.70;35.80
64143;DHT22;50437;51.970;5.904;2023-04-03T13:31:34;11.50;37.20
64143;DHT22;50437;51.970;5.904;2023-04-03T13:36:37;11.80;38.20
64143;DHT22;50437;51.970;5.904;2023-04-03T13:39:20;11.90;36.60
64143;DHT22;50437;51.970;5.904;2023-04-03T13:41:49;11.80;37.70
64143;DHT22;50437;51.970;5.904;2023-04-03T13:46:41;11.80;36.90
64143;DHT22;50437;51.970;5.904;2023-04-03T13:49:29;11.40;36.20
64143;DHT22;50437;51.970;5.904;2023-04-03T13:51:57;11.70;37.50
64143;DHT22;50437;51.970;5.904;2023-04-03T13:54:31;11.70;37.50
64143;DHT22;50437;51.970;5.904;2023-04-03T13:57:00;11.50;36.30
64143;DHT22;50437;51.970;5.904;2023-04-03T13:59:33;11.90;38.30
64143;DHT22;50437;51.970;5.904;2023-04-03T14:04:29;11.90;38.20
64143;DHT22;50437;51.970;5.904;2023-04-03T14:06:55;12.20;38.70
64143;DHT22;50437;51.970;5.904;2023-04-03T14:09:23;11.70;36.80
64143;DHT22;50437;51.970;5.904;2023-04-03T14:11:50;11.40;37.60
64143;DHT22;50437;51.970;5.904;2023-04-03T14:14:19;11.30;37.50
64143;DHT22;50437;51.970;5.904;2023-04-03T14:16:47;11.70;39.30
64143;DHT22;50437;51.970;5.904;2023-04-03T14:19:16;12.10;39.60
64143;DHT22;50437;51.970;5.904;2023-04-03T14:21:42;11.60;35.30
64143;DHT22;50437;51.970;5.904;2023-04-03T14:24:08;11.40;36.80
64143;DHT22;50437;51.970;5.904;2023-04-03T14:26:34;11.30;38.10
64143;DHT22;50437;51.970;5.904;2023-04-03T14:29:03;11.40;38.60
64143;DHT22;50437;51.970;5.904;2023-04-03T14:31:29;11.50;39.20
64143;DHT22;50437;51.970;5.904;2023-04-03T14:33:55;11.40;38.70
64143;DHT22;50437;51.970;5.904;2023-04-03T14:36:22;11.60;39.00
64143;DHT22;50437;51.970;5.904;2023-04-03T14:38:48;11.60;37.90
64143;DHT22;50437;51.970;5.904;2023-04-03T14:41:17;11.80;39.00
64143;DHT22;50437;51.970;5.904;2023-04-03T14:43:44;12.00;42.70
64143;DHT22;50437;51.970;5.904;2023-04-03T14:46:12;11.70;40.10
64143;DHT22;50437;51.970;5.904;2023-04-03T14:48:40;11.50;40.40
64143;DHT22;50437;51.970;5.904;2023-04-03T14:51:08;11.60;39.80
64143;DHT22;50437;51.970;5.904;2023-04-03T14:53:35;11.80;41.00
64143;DHT22;50437;51.970;5.904;2023-04-03T14:56:04;11.90;40.00
64143;DHT22;50437;51.970;5.904;2023-04-03T14:58:30;11.70;39.50
64143;DHT22;50437;51.970;5.904;2023-04-03T15:00:57;11.40;40.10
64143;DHT22;50437;51.970;5.904;2023-04-03T15:03:23;11.30;39.50
64143;DHT22;50437;51.970;5.904;2023-04-03T15:05:50;11.40;41.40
64143;DHT22;50437;51.970;5.904;2023-04-03T15:08:17;11.30;40.70
64143;DHT22;50437;51.970;5.904;2023-04-03T15:10:46;11.40;40.80
64143;DHT22;50437;51.970;5.904;2023-04-03T15:13:13;11.40;40.80
64143;DHT22;50437;51.970;5.904;2023-04-03T15:15:39;11.20;41.80
64143;DHT22;50437;51.970;5.904;2023-04-03T15:18:05;11.20;41.20
64143;DHT22;50437;51.970;5.904;2023-04-03T15:20:32;11.20;41.10
64143;DHT22;50437;51.970;5.904;2023-04-03T15:22:59;11.20;41.60
64143;DHT22;50437;51.970;5.904;2023-04-03T15:25:26;11.20;40.80
64143;DHT22;50437;51.970;5.904;2023-04-03T15:27:53;11.10;41.20
64143;DHT22;50437;51.970;5.904;2023-04-03T15:30:20;11.20;43.50
64143;DHT22;50437;51.970;5.904;2023-04-03T15:33:00;11.40;42.60
64143;DHT22;50437;51.970;5.904;2023-04-03T15:35:28;10.80;40.70
64143;DHT22;50437;51.970;5.904;2023-04-03T15:37:54;10.70;41.70
64143;DHT22;50437;51.970;5.904;2023-04-03T15:40:20;11.00;44.60
64143;DHT22;50437;51.970;5.904;2023-04-03T15:42:46;11.00;43.70
64143;DHT22;50437;51.970;5.904;2023-04-03T15:45:12;11.00;42.00
64143;DHT22;50437;51.970;5.904;2023-04-03T15:47:38;10.80;42.60
64143;DHT22;50437;51.970;5.904;2023-04-03T15:50:04;10.90;43.40
64143;DHT22;50437;51.970;5.904;2023-04-03T15:52:34;10.90;42.90
64143;DHT22;50437;51.970;5.904;2023-04-03T15:55:04;10.80;42.70
64143;DHT22;50437;51.970;5.904;2023-04-03T15:57:30;10.60;43.60
64143;DHT22;50437;51.970;5.904;2023-04-03T16:00:02;10.60;41.80
64143;DHT22;50437;51.970;5.904;2023-04-03T16:02:32;10.40;42.10
64143;DHT22;50437;51.970;5.904;2023-04-03T16:04:58;10.40;42.80
64143;DHT22;50437;51.970;5.904;2023-04-03T16:07:24;10.60;44.40
64143;DHT22;50437;51.970;5.904;2023-04-03T16:09:51;10.40;42.80
64143;DHT22;50437;51.970;5.904;2023-04-03T16:12:17;10.70;44.00
64143;DHT22;50437;51.970;5.904;2023-04-03T16:14:43;10.50;41.70
64143;DHT22;50437;51.970;5.904;2023-04-03T16:17:10;10.50;42.00
64143;DHT22;50437;51.970;5.904;2023-04-03T16:19:35;10.20;43.30
64143;DHT22;50437;51.970;5.904;2023-04-03T16:22:02;10.20;44.10
64143;DHT22;50437;51.970;5.904;2023-04-03T16:24:28;10.30;44.20
64143;DHT22;50437;51.970;5.904;2023-04-03T16:26:55;10.40;43.70
64143;DHT22;50437;51.970;5.904;2023-04-03T16:29:21;10.20;43.70
64143;DHT22;50437;51.970;5.904;2023-04-03T16:31:47;10.20;43.60
64143;DHT22;50437;51.970;5.904;2023-04-03T16:34:13;10.10;44.20
64143;DHT22;50437;51.970;5.904;2023-04-03T16:36:44;10.00;44.60
64143;DHT22;50437;51.970;5.904;2023-04-03T16:39:12;9.80;44.20
64143;DHT22;50437;51.970;5.904;2023-04-03T16:41:38;9.90;45.40
64143;DHT22;50437;51.970;5.904;2023-04-03T16:44:04;9.80;45.70
64143;DHT22;50437;51.970;5.904;2023-04-03T16:46:30;9.80;44.50
64143;DHT22;50437;51.970;5.904;2023-04-03T16:48:56;9.60;44.60
64143;DHT22;50437;51.970;5.904;2023-04-03T16:51:26;9.70;45.40
64143;DHT22;50437;51.970;5.904;2023-04-03T16:53:52;9.40;44.70
64143;DHT22;50437;51.970;5.904;2023-04-03T16:56:27;9.50;44.70
64143;DHT22;50437;51.970;5.904;2023-04-03T16:58:58;9.30;44.20
64143;DHT22;50437;51.970;5.904;2023-04-03T17:01:24;9.10;45.30
64143;DHT22;50437;51.970;5.904;2023-04-03T17:03:53;9.10;45.60
64143;DHT22;50437;51.970;5.904;2023-04-03T17:06:20;9.10;47.00
64143;DHT22;50437;51.970;5.904;2023-04-03T17:08:47;9.10;47.70
64143;DHT22;50437;51.970;5.904;2023-04-03T17:11:26;8.90;44.50
64143;DHT22;50437;51.970;5.904;2023-04-03T17:13:52;8.80;47.00
64143;DHT22;50437;51.970;5.904;2023-04-03T17:16:18;8.90;48.00
64143;DHT22;50437;51.970;5.904;2023-04-03T17:18:44;8.70;46.80
64143;DHT22;50437;51.970;5.904;2023-04-03T17:21:11;8.70;48.10